createdAt,value
2018-07-23T00:00:45.696Z,5.10
2018-07-23T00:01:45.676Z,5.10
2018-07-23T00:02:45.662Z,5.00
2018-07-23T00:03:45.682Z,5.10
2018-07-23T00:04:45.642Z,4.90
2018-07-23T00:05:45.634Z,4.80
2018-07-23T00:06:45.619Z,5.40
2018-07-23T00:07:45.611Z,5.20
2018-07-23T00:08:45.593Z,5.50
2018-07-23T00:09:45.599Z,5.30
2018-07-23T00:10:45.575Z,5.50
2018-07-23T00:11:45.561Z,5.60
2018-07-23T00:12:45.551Z,5.30
2018-07-23T00:13:45.543Z,5.50
2018-07-23T00:14:45.548Z,5.40
2018-07-23T00:15:45.516Z,5.20
2018-07-23T00:16:45.504Z,5.50
2018-07-23T00:17:45.511Z,5.50
2018-07-23T00:18:45.482Z,5.70
2018-07-23T00:19:45.473Z,5.60
2018-07-23T00:20:45.461Z,5.50
2018-07-23T00:21:45.455Z,5.60
2018-07-23T00:22:45.437Z,6.60
2018-07-23T00:23:45.437Z,6.50
2018-07-23T00:24:45.420Z,6.50
2018-07-23T00:25:45.408Z,6.50
2018-07-23T00:26:45.391Z,6.90
2018-07-23T00:27:45.374Z,6.70
2018-07-23T00:28:45.379Z,7.20
2018-07-23T00:29:45.349Z,7.00
2018-07-23T00:30:45.338Z,6.90
2018-07-23T00:31:45.329Z,6.60
2018-07-23T00:32:45.335Z,6.50
2018-07-23T00:33:45.309Z,6.70
2018-07-23T00:34:45.297Z,6.40
2018-07-23T00:35:45.282Z,7.20
2018-07-23T00:36:45.274Z,7.10
2018-07-23T00:37:45.282Z,7.00
2018-07-23T00:38:45.249Z,7.20
2018-07-23T00:39:45.240Z,7.20
2018-07-23T00:40:45.227Z,7.40
2018-07-23T00:41:45.213Z,7.00
2018-07-23T00:42:45.215Z,7.00
2018-07-23T00:43:45.207Z,7.70
2018-07-23T00:44:45.198Z,7.30
2018-07-23T00:45:45.172Z,7.90
2018-07-23T00:46:45.169Z,8.00
2018-07-23T00:47:45.148Z,7.30
2018-07-23T00:48:45.145Z,7.50
2018-07-23T00:49:45.147Z,7.50
2018-07-23T00:50:45.108Z,7.90
2018-07-23T00:51:45.101Z,7.60
2018-07-23T00:52:45.086Z,7.30
2018-07-23T00:53:45.075Z,7.70
2018-07-23T00:54:45.066Z,7.40
2018-07-23T00:55:45.072Z,7.50
2018-07-23T00:56:45.041Z,7.50
2018-07-23T00:57:45.031Z,8.00
2018-07-23T00:58:45.021Z,7.60
2018-07-23T00:59:45.005Z,8.10
2018-07-23T01:00:45.015Z,8.00
2018-07-23T01:01:44.982Z,7.70
2018-07-23T01:02:44.973Z,8.60
2018-07-23T01:03:44.961Z,8.40
2018-07-23T01:04:44.962Z,8.20
2018-07-23T01:05:44.947Z,8.40
2018-07-23T01:06:44.922Z,7.90
2018-07-23T01:07:44.911Z,8.70
2018-07-23T01:08:44.900Z,8.20
2018-07-23T01:09:44.887Z,8.10
2018-07-23T01:10:44.891Z,8.00
2018-07-23T01:11:44.864Z,8.10
2018-07-23T01:12:44.851Z,8.40
2018-07-23T01:13:44.842Z,8.10
2018-07-23T01:14:44.849Z,8.40
2018-07-23T01:15:44.820Z,8.70
2018-07-23T01:16:44.807Z,8.40
2018-07-23T01:17:44.796Z,8.20
2018-07-23T01:18:44.779Z,8.10
2018-07-23T01:19:44.766Z,8.30
2018-07-23T01:20:44.775Z,8.50
2018-07-23T01:21:44.746Z,8.30
2018-07-23T01:22:44.735Z,8.50
2018-07-23T01:23:44.721Z,8.80
2018-07-23T01:24:44.729Z,8.40
2018-07-23T01:25:44.718Z,8.70
2018-07-23T01:26:44.692Z,8.50
2018-07-23T01:27:44.675Z,8.30
2018-07-23T01:28:44.663Z,9.10
2018-07-23T01:29:44.670Z,9.30
2018-07-23T01:30:44.641Z,9.30
2018-07-23T01:31:44.646Z,8.80
2018-07-23T01:32:44.617Z,8.90
2018-07-23T01:33:44.605Z,9.30
2018-07-23T01:34:44.614Z,9.00
2018-07-23T01:35:44.576Z,9.00
2018-07-23T01:36:44.587Z,9.20
2018-07-23T01:37:44.557Z,9.10
2018-07-23T01:38:44.546Z,8.70
2018-07-23T01:39:44.529Z,8.90
2018-07-23T01:40:44.520Z,9.40
2018-07-23T01:41:44.513Z,9.40
2018-07-23T01:42:44.515Z,9.70
2018-07-23T01:43:44.489Z,9.90
2018-07-23T01:44:44.475Z,9.50
2018-07-23T01:45:44.465Z,9.60
2018-07-23T01:46:44.449Z,10.20
2018-07-23T01:47:44.452Z,9.60
2018-07-23T01:48:44.423Z,9.70
2018-07-23T01:49:44.414Z,9.50
2018-07-23T01:50:44.420Z,10.20
2018-07-23T01:51:44.388Z,9.60
2018-07-23T01:52:44.378Z,9.90
2018-07-23T01:53:44.383Z,10.00
2018-07-23T01:54:44.362Z,10.00
2018-07-23T01:55:44.341Z,9.90
2018-07-23T01:56:44.344Z,9.40
2018-07-23T01:57:44.327Z,9.50
2018-07-23T01:58:44.303Z,9.70
2018-07-23T01:59:44.295Z,9.70
2018-07-23T02:00:44.282Z,9.60
2018-07-23T02:01:44.292Z,9.20
2018-07-23T02:02:44.261Z,9.40
2018-07-23T02:03:44.257Z,8.90
2018-07-23T02:04:44.230Z,9.60
2018-07-23T02:05:44.221Z,10.00
2018-07-23T02:06:44.206Z,10.00
2018-07-23T02:07:44.215Z,10.30
2018-07-23T02:08:44.187Z,10.30
2018-07-23T02:09:44.182Z,11.30
2018-07-23T02:10:44.160Z,11.70
2018-07-23T02:11:44.150Z,11.50
2018-07-23T02:12:44.150Z,11.50
2018-07-23T02:13:44.132Z,11.50
2018-07-23T02:14:44.117Z,11.30
2018-07-23T02:15:44.114Z,10.80
2018-07-23T02:16:44.091Z,10.80
2018-07-23T02:17:44.077Z,10.20
2018-07-23T02:18:44.068Z,10.30
2018-07-23T02:19:44.055Z,10.00
2018-07-23T02:20:44.071Z,9.90
2018-07-23T02:21:44.036Z,10.50
2018-07-23T02:22:44.039Z,10.70
2018-07-23T02:23:44.011Z,10.90
2018-07-23T02:24:43.997Z,9.90
2018-07-23T02:25:43.982Z,10.00
2018-07-23T02:26:43.971Z,10.20
2018-07-23T02:27:43.973Z,11.10
2018-07-23T02:28:43.947Z,11.20
2018-07-23T02:29:43.934Z,11.30
2018-07-23T02:30:43.922Z,11.00
2018-07-23T02:31:43.911Z,11.40
2018-07-23T02:32:43.921Z,10.60
2018-07-23T02:33:43.891Z,11.10
2018-07-23T02:34:43.875Z,10.50
2018-07-23T02:35:43.862Z,10.70
2018-07-23T02:36:43.850Z,11.10
2018-07-23T02:37:43.856Z,10.20
2018-07-23T02:38:43.824Z,10.60
2018-07-23T02:39:43.816Z,11.00
2018-07-23T02:40:43.799Z,10.90
2018-07-23T02:41:43.809Z,11.60
2018-07-23T02:42:43.790Z,11.50
2018-07-23T02:43:43.768Z,11.70
2018-07-23T02:44:43.747Z,12.00
2018-07-23T02:45:43.739Z,12.60
2018-07-23T02:46:43.724Z,13.10
2018-07-23T02:47:43.719Z,13.00
2018-07-23T02:48:43.722Z,13.20
2018-07-23T02:49:43.694Z,14.30
2018-07-23T02:50:43.678Z,14.80
2018-07-23T02:51:43.664Z,14.40
2018-07-23T02:52:43.675Z,14.20
2018-07-23T02:53:43.655Z,14.90
2018-07-23T02:54:43.631Z,14.70
2018-07-23T02:55:43.617Z,15.60
2018-07-23T02:56:43.617Z,15.90
2018-07-23T02:57:43.592Z,16.00
2018-07-23T02:58:43.584Z,15.40
2018-07-23T02:59:43.675Z,15.20
2018-07-23T03:00:43.572Z,14.80
2018-07-23T03:01:43.546Z,15.30
2018-07-23T03:02:43.530Z,14.80
2018-07-23T03:03:43.518Z,14.80
2018-07-23T03:04:43.525Z,15.20
2018-07-23T03:05:43.501Z,15.20
2018-07-23T03:06:43.479Z,16.00
2018-07-23T03:07:43.468Z,16.00
2018-07-23T03:08:43.468Z,17.00
2018-07-23T03:09:43.442Z,16.90
2018-07-23T03:10:43.448Z,16.10
2018-07-23T03:11:43.421Z,16.20
2018-07-23T03:12:43.420Z,16.20
2018-07-23T03:13:43.399Z,16.00
2018-07-23T03:14:43.383Z,15.80
2018-07-23T03:15:43.371Z,15.90
2018-07-23T03:16:43.376Z,15.50
2018-07-23T03:17:43.342Z,15.80
2018-07-23T03:18:43.334Z,15.90
2018-07-23T03:19:43.337Z,15.90
2018-07-23T03:20:43.307Z,15.80
2018-07-23T03:21:43.314Z,15.30
2018-07-23T03:22:43.285Z,15.60
2018-07-23T03:23:43.272Z,15.60
2018-07-23T03:24:43.275Z,16.20
2018-07-23T03:25:43.246Z,15.90
2018-07-23T03:26:43.233Z,15.80
2018-07-23T03:27:43.227Z,15.40
2018-07-23T03:28:43.227Z,15.90
2018-07-23T03:29:43.208Z,16.00
2018-07-23T03:30:43.184Z,14.90
2018-07-23T03:31:43.173Z,15.20
2018-07-23T03:32:43.159Z,15.60
2018-07-23T03:33:43.146Z,14.80
2018-07-23T03:34:43.152Z,14.90
2018-07-23T03:35:43.126Z,15.00
2018-07-23T03:36:43.104Z,15.10
2018-07-23T03:37:43.095Z,14.60
2018-07-23T03:38:43.085Z,14.80
2018-07-23T03:39:43.090Z,14.60
2018-07-23T03:40:43.062Z,14.20
2018-07-23T03:41:43.048Z,13.90
2018-07-23T03:42:43.032Z,14.10
2018-07-23T03:43:43.043Z,14.10
2018-07-23T03:44:43.015Z,14.10
2018-07-23T03:45:42.996Z,14.10
2018-07-23T03:46:42.986Z,13.90
2018-07-23T03:47:42.974Z,14.70
2018-07-23T03:48:42.976Z,14.50
2018-07-23T03:49:42.971Z,15.20
2018-07-23T03:50:42.935Z,14.80
2018-07-23T03:51:42.920Z,14.90
2018-07-23T03:52:42.906Z,14.90
2018-07-23T03:53:42.894Z,15.00
2018-07-23T03:54:42.887Z,14.50
2018-07-23T03:55:42.896Z,15.70
2018-07-23T03:56:42.862Z,15.40
2018-07-23T03:57:42.839Z,15.50
2018-07-23T03:58:42.836Z,14.70
2018-07-23T03:59:42.820Z,15.50
2018-07-23T04:00:42.820Z,15.20
2018-07-23T04:01:42.791Z,15.70
2018-07-23T04:02:42.776Z,15.60
2018-07-23T04:03:42.768Z,15.10
2018-07-23T04:04:42.769Z,15.10
2018-07-23T04:05:42.749Z,16.00
2018-07-23T04:06:42.746Z,16.10
2018-07-23T04:07:42.720Z,15.50
2018-07-23T04:08:42.704Z,15.90
2018-07-23T04:09:42.692Z,16.30
2018-07-23T04:10:42.728Z,16.70
2018-07-23T04:11:42.685Z,16.70
2018-07-23T04:12:42.650Z,16.70
2018-07-23T04:13:42.650Z,16.40
2018-07-23T04:14:42.631Z,16.50
2018-07-23T04:15:42.634Z,16.60
2018-07-23T04:16:42.619Z,16.40
2018-07-23T04:17:42.605Z,16.10
2018-07-23T04:18:42.574Z,15.80
2018-07-23T04:19:42.571Z,15.20
2018-07-23T04:20:42.570Z,15.90
2018-07-23T04:21:42.555Z,15.90
2018-07-23T04:22:42.535Z,15.30
2018-07-23T04:23:42.531Z,15.90
2018-07-23T04:24:42.502Z,15.90
2018-07-23T04:25:42.491Z,15.80
2018-07-23T04:26:42.483Z,15.50
2018-07-23T04:27:42.480Z,15.10
2018-07-23T04:28:42.448Z,15.70
2018-07-23T04:29:42.441Z,15.50
2018-07-23T04:30:42.427Z,15.40
2018-07-23T04:31:42.411Z,15.20
2018-07-23T04:32:42.418Z,15.40
2018-07-23T04:33:42.388Z,15.30
2018-07-23T04:34:42.379Z,15.10
2018-07-23T04:35:42.368Z,15.10
2018-07-23T04:36:42.360Z,14.80
2018-07-23T04:37:42.340Z,14.70
2018-07-23T04:38:42.347Z,15.10
2018-07-23T04:39:42.324Z,15.00
2018-07-23T04:40:42.304Z,15.20
2018-07-23T04:41:42.293Z,15.10
2018-07-23T04:42:42.277Z,15.60
2018-07-23T04:43:42.269Z,14.90
2018-07-23T04:44:42.276Z,14.90
2018-07-23T04:45:42.248Z,15.30
2018-07-23T04:46:42.229Z,15.30
2018-07-23T04:47:42.220Z,15.10
2018-07-23T04:48:42.226Z,15.60
2018-07-23T04:49:42.214Z,16.00
2018-07-23T04:50:42.243Z,15.70
2018-07-23T04:51:42.170Z,15.50
2018-07-23T04:52:42.157Z,14.40
2018-07-23T04:53:42.148Z,15.10
2018-07-23T04:54:42.152Z,15.40
2018-07-23T04:55:42.133Z,15.10
2018-07-23T04:56:42.175Z,15.20
2018-07-23T04:57:42.099Z,15.60
2018-07-23T04:58:42.100Z,15.20
2018-07-23T04:59:42.088Z,15.10
2018-07-23T05:00:42.093Z,15.30
2018-07-23T05:01:42.063Z,15.50
2018-07-23T05:02:42.039Z,15.30
2018-07-23T05:03:42.034Z,16.20
2018-07-23T05:04:42.036Z,14.80
2018-07-23T05:05:42.014Z,15.80
2018-07-23T05:06:41.990Z,16.00
2018-07-23T05:07:41.983Z,16.20
2018-07-23T05:08:41.985Z,15.70
2018-07-23T05:09:41.951Z,15.80
2018-07-23T05:10:41.957Z,15.40
2018-07-23T05:11:41.950Z,15.80
2018-07-23T05:12:41.918Z,15.90
2018-07-23T05:13:41.912Z,16.50
2018-07-23T05:14:41.894Z,16.00
2018-07-23T05:15:41.897Z,16.80
2018-07-23T05:16:41.891Z,16.60
2018-07-23T05:17:41.859Z,16.40
2018-07-23T05:18:41.854Z,15.90
2018-07-23T05:19:41.837Z,16.40
2018-07-23T05:20:41.837Z,15.90
2018-07-23T05:21:41.807Z,15.70
2018-07-23T05:22:41.798Z,15.90
2018-07-23T05:23:41.786Z,15.50
2018-07-23T05:24:41.794Z,15.10
2018-07-23T05:26:02.790Z,15.70
2018-07-23T05:26:41.751Z,15.70
2018-07-23T05:27:41.742Z,15.90
2018-07-23T05:28:41.728Z,15.80
2018-07-23T05:29:41.715Z,16.60
2018-07-23T05:30:41.705Z,16.80
2018-07-23T05:31:41.811Z,16.10
2018-07-23T05:32:41.683Z,15.70
2018-07-23T05:33:41.675Z,16.20
2018-07-23T05:34:41.659Z,16.60
2018-07-23T05:35:41.650Z,16.50
2018-07-23T05:36:41.645Z,16.40
2018-07-23T05:37:41.625Z,15.70
2018-07-23T05:38:41.611Z,15.80
2018-07-23T05:39:41.600Z,16.00
2018-07-23T05:40:41.591Z,16.10
2018-07-23T05:41:41.588Z,16.20
2018-07-23T05:42:41.566Z,16.30
2018-07-23T05:43:41.555Z,16.40
2018-07-23T05:44:41.542Z,16.80
2018-07-23T05:45:41.530Z,16.30
2018-07-23T05:46:41.542Z,17.00
2018-07-23T05:47:41.509Z,15.70
2018-07-23T05:48:41.495Z,16.40
2018-07-23T05:49:41.497Z,16.00
2018-07-23T05:50:41.471Z,15.70
2018-07-23T05:51:41.462Z,16.00
2018-07-23T05:52:41.478Z,15.70
2018-07-23T05:53:41.441Z,16.10
2018-07-23T05:54:41.433Z,16.20
2018-07-23T05:55:41.422Z,16.40
2018-07-23T05:56:41.405Z,15.60
2018-07-23T05:57:41.429Z,16.30
2018-07-23T05:58:41.385Z,15.90
2018-07-23T05:59:41.376Z,15.90
2018-07-23T06:00:41.361Z,16.10
2018-07-23T06:01:41.357Z,17.20
2018-07-23T06:02:41.338Z,16.70
2018-07-23T06:03:41.386Z,16.50
2018-07-23T06:04:41.313Z,16.60
2018-07-23T06:05:41.309Z,17.00
2018-07-23T06:06:41.308Z,17.00
2018-07-23T06:07:41.305Z,16.60
2018-07-23T06:08:41.271Z,16.00
2018-07-23T06:09:41.264Z,17.60
2018-07-23T06:10:41.254Z,17.20
2018-07-23T06:11:41.242Z,17.10
2018-07-23T06:12:41.226Z,15.90
2018-07-23T06:13:41.232Z,16.50
2018-07-23T06:14:41.206Z,16.20
2018-07-23T06:15:41.197Z,16.80
2018-07-23T06:16:41.184Z,18.50
2018-07-23T06:17:41.173Z,18.50
2018-07-23T06:18:41.159Z,19.00
2018-07-23T06:19:41.168Z,19.60
2018-07-23T06:20:41.140Z,19.50
2018-07-23T06:21:41.125Z,19.20
2018-07-23T06:22:41.114Z,18.90
2018-07-23T06:23:41.108Z,18.40
2018-07-23T06:24:41.122Z,18.20
2018-07-23T06:25:41.129Z,18.00
2018-07-23T06:26:41.075Z,17.50
2018-07-23T06:27:41.063Z,18.60
2018-07-23T06:28:41.053Z,18.50
2018-07-23T06:29:41.060Z,17.80
2018-07-23T06:30:41.039Z,17.10
2018-07-23T06:31:41.016Z,18.30
2018-07-23T06:32:41.019Z,16.50
2018-07-23T06:33:41.004Z,17.20
2018-07-23T06:34:40.987Z,18.00
2018-07-23T06:35:40.989Z,18.10
2018-07-23T06:36:40.965Z,17.20
2018-07-23T06:37:40.994Z,17.50
2018-07-23T06:38:40.945Z,16.90
2018-07-23T06:39:40.934Z,18.00
2018-07-23T06:40:40.935Z,17.50
2018-07-23T06:41:40.914Z,16.90
2018-07-23T06:42:40.899Z,16.90
2018-07-23T06:43:40.888Z,16.60
2018-07-23T06:44:40.900Z,15.40
2018-07-23T06:45:40.865Z,16.90
2018-07-23T06:46:40.919Z,16.40
2018-07-23T06:47:40.850Z,14.60
2018-07-23T06:48:40.843Z,14.90
2018-07-23T06:49:40.830Z,15.50
2018-07-23T06:50:40.830Z,15.00
2018-07-23T06:51:40.824Z,15.40
2018-07-23T06:52:40.799Z,14.70
2018-07-23T06:53:40.787Z,14.90
2018-07-23T06:54:40.775Z,13.90
2018-07-23T06:55:40.771Z,13.80
2018-07-23T06:56:40.771Z,15.90
2018-07-23T06:57:40.748Z,16.60
2018-07-23T06:58:40.971Z,16.80
2018-07-23T06:59:41.789Z,15.80
2018-07-23T07:00:40.758Z,15.90
2018-07-23T07:01:40.702Z,15.90
2018-07-23T07:02:40.718Z,15.30
2018-07-23T07:03:40.681Z,14.50
2018-07-23T07:04:40.673Z,14.50
2018-07-23T07:05:42.644Z,15.70
2018-07-23T07:06:41.770Z,14.90
2018-07-23T07:07:40.641Z,15.10
2018-07-23T07:08:40.656Z,14.60
2018-07-23T07:09:40.623Z,14.80
2018-07-23T07:10:40.615Z,14.50
2018-07-23T07:11:40.609Z,15.20
2018-07-23T07:12:40.627Z,16.80
2018-07-23T07:13:40.586Z,16.40
2018-07-23T07:14:40.590Z,16.50
2018-07-23T07:15:40.564Z,16.80
2018-07-23T07:16:40.547Z,16.20
2018-07-23T07:17:40.562Z,15.40
2018-07-23T07:18:40.539Z,15.30
2018-07-23T07:19:40.534Z,14.80
2018-07-23T07:20:40.512Z,14.20
2018-07-23T07:21:40.497Z,14.40
2018-07-23T07:22:40.499Z,13.70
2018-07-23T07:23:40.477Z,13.80
2018-07-23T07:24:40.491Z,13.00
2018-07-23T07:25:40.461Z,12.50
2018-07-23T07:26:40.451Z,11.80
2018-07-23T07:27:40.442Z,10.90
2018-07-23T07:28:40.435Z,10.90
2018-07-23T07:29:40.442Z,10.50
2018-07-23T07:30:40.416Z,10.50
2018-07-23T07:31:40.412Z,10.70
2018-07-23T07:32:40.391Z,11.60
2018-07-23T07:33:40.384Z,11.50
2018-07-23T07:34:40.401Z,11.50
2018-07-23T07:35:40.368Z,12.40
2018-07-23T07:36:40.355Z,12.20
2018-07-23T07:37:40.342Z,11.30
2018-07-23T07:38:40.335Z,10.90
2018-07-23T07:39:40.325Z,10.20
2018-07-23T07:40:40.348Z,10.10
2018-07-23T07:41:40.301Z,10.20
2018-07-23T07:42:40.301Z,10.50
2018-07-23T07:43:40.283Z,10.50
2018-07-23T07:44:40.274Z,10.10
2018-07-23T07:45:40.267Z,10.60
2018-07-23T07:46:40.279Z,10.30
2018-07-23T07:47:40.250Z,10.40
2018-07-23T07:48:40.253Z,11.50
2018-07-23T07:49:40.227Z,11.00
2018-07-23T07:50:40.246Z,10.40
2018-07-23T07:51:40.240Z,10.20
2018-07-23T07:53:06.466Z,10.40
2018-07-23T07:53:40.192Z,10.10
2018-07-23T07:54:40.186Z,9.30
2018-07-23T07:55:40.172Z,9.50
2018-07-23T07:56:40.164Z,10.80
2018-07-23T07:57:40.175Z,9.30
2018-07-23T07:58:40.142Z,10.30
2018-07-23T07:59:40.137Z,9.50
2018-07-23T08:00:40.125Z,9.30
2018-07-23T08:01:40.117Z,9.30
2018-07-23T08:02:40.145Z,10.50
2018-07-23T08:03:40.096Z,9.90
2018-07-23T08:04:40.086Z,9.80
2018-07-23T08:05:40.074Z,9.20
2018-07-23T08:06:40.076Z,8.90
2018-07-23T08:07:40.059Z,9.00
2018-07-23T08:08:40.065Z,9.90
2018-07-23T08:09:40.044Z,10.90
2018-07-23T08:10:40.050Z,10.30
2018-07-23T08:11:40.019Z,10.00
2018-07-23T08:13:01.051Z,10.20
2018-07-23T08:13:40.006Z,10.00
2018-07-23T08:14:40.020Z,10.60
2018-07-23T08:15:39.992Z,10.40
2018-07-23T08:16:40.715Z,10.40
2018-07-23T08:17:39.984Z,9.60
2018-07-23T08:18:39.982Z,10.10
2018-07-23T08:19:39.950Z,8.70
2018-07-23T08:20:39.938Z,8.50
2018-07-23T08:21:39.934Z,9.20
2018-07-23T08:22:39.944Z,9.30
2018-07-23T08:23:39.925Z,8.80
2018-07-23T08:24:39.922Z,9.00
2018-07-23T08:25:39.890Z,8.10
2018-07-23T08:26:39.905Z,8.90
2018-07-23T08:27:39.880Z,8.70
2018-07-23T08:28:39.870Z,8.60
2018-07-23T08:29:39.873Z,9.50
2018-07-23T08:30:39.852Z,9.60
2018-07-23T08:31:39.908Z,9.30
2018-07-23T08:32:39.832Z,8.70
2018-07-23T08:33:39.826Z,9.00
2018-07-23T08:34:39.835Z,10.30
2018-07-23T08:35:39.810Z,9.50
2018-07-23T08:36:39.810Z,9.40
2018-07-23T08:37:39.789Z,9.80
2018-07-23T08:38:39.787Z,9.80
2018-07-23T08:39:39.833Z,9.90
2018-07-23T08:40:39.759Z,10.40
2018-07-23T08:41:39.754Z,10.20
2018-07-23T08:42:39.746Z,9.30
2018-07-23T08:43:39.740Z,9.20
2018-07-23T08:44:39.761Z,9.30
2018-07-23T08:45:39.739Z,9.30
2018-07-23T08:46:39.717Z,9.40
2018-07-23T08:47:39.709Z,9.10
2018-07-23T08:48:39.703Z,10.10
2018-07-23T08:49:39.682Z,10.10
2018-07-23T08:50:39.691Z,9.30
2018-07-23T08:51:39.673Z,9.00
2018-07-23T08:52:39.662Z,8.80
2018-07-23T08:53:39.649Z,8.50
2018-07-23T08:54:39.646Z,8.80
2018-07-23T08:55:39.640Z,8.30
2018-07-23T08:56:39.644Z,8.10
2018-07-23T08:57:39.655Z,8.00
2018-07-23T08:58:39.614Z,9.00
2018-07-23T08:59:39.605Z,8.20
2018-07-23T09:00:39.596Z,9.80
2018-07-23T09:01:39.586Z,8.60
2018-07-23T09:02:39.609Z,9.20
2018-07-23T09:03:39.576Z,8.60
2018-07-23T09:04:39.560Z,9.10
2018-07-23T09:05:39.553Z,8.90
2018-07-23T09:06:39.549Z,9.20
2018-07-23T09:07:39.564Z,9.70
2018-07-23T09:08:39.614Z,9.50
2018-07-23T09:09:39.521Z,9.20
2018-07-23T09:10:39.519Z,8.80
2018-07-23T09:11:39.513Z,9.80
2018-07-23T09:12:39.521Z,10.70
2018-07-23T09:13:39.497Z,9.60
2018-07-23T09:14:39.487Z,9.30
2018-07-23T09:15:39.482Z,9.60
2018-07-23T09:16:39.477Z,8.20
2018-07-23T09:17:39.481Z,9.90
2018-07-23T09:18:39.458Z,9.50
2018-07-23T09:19:39.465Z,10.20
2018-07-23T09:20:39.456Z,11.90
2018-07-23T09:21:39.434Z,11.90
2018-07-23T09:22:39.430Z,9.80
2018-07-23T09:23:39.463Z,9.20
2018-07-23T09:24:39.416Z,11.20
2018-07-23T09:25:39.408Z,9.20
2018-07-23T09:26:39.403Z,9.50
2018-07-23T09:27:39.412Z,9.30
2018-07-23T09:28:39.387Z,8.80
2018-07-23T09:29:39.404Z,9.90
2018-07-23T09:30:39.375Z,10.10
2018-07-23T09:31:39.367Z,9.40
2018-07-23T09:32:39.362Z,8.50
2018-07-23T09:33:39.371Z,8.20
2018-07-23T09:34:39.367Z,8.70
2018-07-23T09:35:39.347Z,9.30
2018-07-23T09:36:39.340Z,8.80
2018-07-23T09:37:39.331Z,8.70
2018-07-23T09:38:39.328Z,9.70
2018-07-23T09:39:39.335Z,8.90
2018-07-23T09:40:39.319Z,9.90
2018-07-23T09:41:39.314Z,9.10
2018-07-23T09:42:39.304Z,9.60
2018-07-23T09:43:39.302Z,9.70
2018-07-23T09:44:39.779Z,8.70
2018-07-23T09:45:39.312Z,8.50
2018-07-23T09:46:39.279Z,8.30
2018-07-23T09:47:39.272Z,9.20
2018-07-23T09:48:39.267Z,9.50
2018-07-23T09:49:39.260Z,9.30
2018-07-23T09:50:39.268Z,9.30
2018-07-23T09:51:39.248Z,9.30
2018-07-23T09:52:39.256Z,9.20
2018-07-23T09:53:39.240Z,8.80
2018-07-23T09:54:39.232Z,8.80
2018-07-23T09:55:39.256Z,8.50
2018-07-23T09:56:39.225Z,9.20
2018-07-23T09:57:39.214Z,8.20
2018-07-23T09:58:39.218Z,8.60
2018-07-23T09:59:39.199Z,8.90
2018-07-23T10:00:39.204Z,8.60
2018-07-23T10:01:39.208Z,8.90
2018-07-23T10:02:39.186Z,9.30
2018-07-23T10:03:39.210Z,9.30
2018-07-23T10:04:39.176Z,9.70
2018-07-23T10:05:39.170Z,9.50
2018-07-23T10:06:39.179Z,9.20
2018-07-23T10:07:39.156Z,9.10
2018-07-23T10:08:39.151Z,8.50
2018-07-23T10:09:39.155Z,9.20
2018-07-23T10:11:00.179Z,10.00
2018-07-23T10:11:39.134Z,10.40
2018-07-23T10:12:39.128Z,9.30
2018-07-23T10:13:39.129Z,8.30
2018-07-23T10:14:39.123Z,9.90
2018-07-23T10:15:39.136Z,9.90
2018-07-23T10:16:39.107Z,9.30
2018-07-23T10:17:39.104Z,8.90
2018-07-23T10:18:39.094Z,8.70
2018-07-23T10:19:39.094Z,8.70
2018-07-23T10:20:39.083Z,8.20
2018-07-23T10:21:39.101Z,8.10
2018-07-23T10:22:39.068Z,7.90
2018-07-23T10:23:39.064Z,7.50
2018-07-23T10:24:39.075Z,7.90
2018-07-23T10:25:39.058Z,8.40
2018-07-23T10:26:39.063Z,9.10
2018-07-23T10:27:39.077Z,8.40
2018-07-23T10:28:39.037Z,8.30
2018-07-23T10:29:39.038Z,7.40
2018-07-23T10:30:39.034Z,9.30
2018-07-23T10:31:39.027Z,9.10
2018-07-23T10:32:39.021Z,9.10
2018-07-23T10:33:39.034Z,8.70
2018-07-23T10:34:39.009Z,8.60
2018-07-23T10:35:39.005Z,8.30
2018-07-23T10:36:39.001Z,9.00
2018-07-23T10:37:39.029Z,8.70
2018-07-23T10:38:38.993Z,8.00
2018-07-23T10:39:38.987Z,8.00
2018-07-23T10:40:38.985Z,7.50
2018-07-23T10:41:38.983Z,8.10
2018-07-23T10:42:38.978Z,9.80
2018-07-23T10:43:38.997Z,9.20
2018-07-23T10:44:38.966Z,8.70
2018-07-23T10:45:38.959Z,8.10
2018-07-23T10:46:38.950Z,7.40
2018-07-23T10:47:38.962Z,7.90
2018-07-23T10:48:38.950Z,8.60
2018-07-23T10:49:38.962Z,8.10
2018-07-23T10:50:38.943Z,7.20
2018-07-23T10:51:38.940Z,7.60
2018-07-23T10:52:38.929Z,8.20
2018-07-23T10:53:38.964Z,8.30
2018-07-23T10:54:38.956Z,7.30
2018-07-23T10:55:38.927Z,7.60
2018-07-23T10:56:38.923Z,7.80
2018-07-23T10:57:38.918Z,8.80
2018-07-23T10:58:38.915Z,9.10
2018-07-23T10:59:38.920Z,8.00
2018-07-23T11:00:38.924Z,8.00
2018-07-23T11:01:38.913Z,7.20
2018-07-23T11:02:38.910Z,7.00
2018-07-23T11:03:38.908Z,6.80
2018-07-23T11:04:38.907Z,6.00
2018-07-23T11:05:38.895Z,7.00
2018-07-23T11:06:38.927Z,6.90
2018-07-23T11:07:38.917Z,5.70
2018-07-23T11:08:38.893Z,5.40
2018-07-23T11:09:38.939Z,6.10
2018-07-23T11:10:38.882Z,5.50
2018-07-23T11:11:38.883Z,5.90
2018-07-23T11:12:38.880Z,5.80
2018-07-23T11:13:38.879Z,5.60
2018-07-23T11:14:38.893Z,5.50
2018-07-23T11:15:38.881Z,5.70
2018-07-23T11:16:59.935Z,5.70
2018-07-23T11:17:38.871Z,5.00
2018-07-23T11:18:38.883Z,4.80
2018-07-23T11:19:38.893Z,6.00
2018-07-23T11:20:38.877Z,6.10
2018-07-23T11:21:38.873Z,6.50
2018-07-23T11:22:38.880Z,6.30
2018-07-23T11:23:38.879Z,5.10
2018-07-23T11:24:45.388Z,5.00
2018-07-23T11:25:39.949Z,5.30
2018-07-23T11:26:38.890Z,5.60
2018-07-23T11:27:38.877Z,4.70
2018-07-23T11:28:38.876Z,4.10
2018-07-23T11:29:38.887Z,4.20
2018-07-23T11:30:38.877Z,3.70
2018-07-23T11:31:38.890Z,3.30
2018-07-23T11:32:38.889Z,3.80
2018-07-23T11:33:38.877Z,3.90
2018-07-23T11:34:38.903Z,4.00
2018-07-23T11:35:38.877Z,4.40
2018-07-23T11:36:38.955Z,4.40
2018-07-23T11:37:38.903Z,5.00
2018-07-23T11:38:38.875Z,3.90
2018-07-23T11:39:38.877Z,4.30
2018-07-23T11:40:38.879Z,4.00
2018-07-23T11:41:38.928Z,4.20
2018-07-23T11:42:38.896Z,4.00
2018-07-23T11:43:38.894Z,4.00
2018-07-23T11:44:38.882Z,4.10
2018-07-23T11:45:38.896Z,3.60
2018-07-23T11:46:38.881Z,4.20
2018-07-23T11:47:38.877Z,4.10
2018-07-23T11:48:38.892Z,4.20
2018-07-23T11:49:38.880Z,3.90
2018-07-23T11:50:38.888Z,4.60
2018-07-23T11:51:38.880Z,4.70
2018-07-23T11:52:38.875Z,4.60
2018-07-23T11:53:38.943Z,4.90
2018-07-23T11:54:38.875Z,4.80
2018-07-23T11:55:38.871Z,4.50
2018-07-23T11:56:38.889Z,4.60
2018-07-23T11:57:38.884Z,4.40
2018-07-23T11:58:38.871Z,4.50
2018-07-23T11:59:38.898Z,4.40
2018-07-23T12:00:38.867Z,4.10
2018-07-23T12:01:38.901Z,4.30
2018-07-23T12:02:38.872Z,4.50
2018-07-23T12:03:38.867Z,4.80
2018-07-23T12:04:38.983Z,4.50
2018-07-23T12:05:38.861Z,4.70
2018-07-23T12:06:38.857Z,4.50
2018-07-23T12:07:38.858Z,4.30
2018-07-23T12:08:38.858Z,4.40
2018-07-23T12:09:38.867Z,4.80
2018-07-23T12:10:38.856Z,4.30
2018-07-23T12:11:38.868Z,4.30
2018-07-23T12:12:38.849Z,4.10
2018-07-23T12:13:38.852Z,4.20
2018-07-23T12:14:38.872Z,4.10
2018-07-23T12:15:38.846Z,4.80
2018-07-23T12:16:38.863Z,4.30
2018-07-23T12:17:38.864Z,4.40
2018-07-23T12:18:38.850Z,3.80
2018-07-23T12:19:38.887Z,4.10
2018-07-23T12:20:38.862Z,4.10
2018-07-23T12:21:38.848Z,4.30
2018-07-23T12:22:38.850Z,4.50
2018-07-23T12:23:38.855Z,4.30
2018-07-23T12:24:38.848Z,4.40
2018-07-23T12:25:38.869Z,4.30
2018-07-23T12:26:38.859Z,4.30
2018-07-23T12:27:38.868Z,4.70
2018-07-23T12:28:38.850Z,4.40
2018-07-23T12:29:40.393Z,5.00
2018-07-23T12:30:38.878Z,5.10
2018-07-23T12:31:38.882Z,4.80
2018-07-23T12:32:38.875Z,5.00
2018-07-23T12:33:39.745Z,5.20
2018-07-23T12:34:38.848Z,5.40
2018-07-23T12:35:38.847Z,5.90
2018-07-23T12:36:38.845Z,5.50
2018-07-23T12:37:38.845Z,5.00
2018-07-23T12:38:38.864Z,4.80
2018-07-23T12:39:45.904Z,4.80
2018-07-23T12:40:38.846Z,4.70
2018-07-23T12:41:38.839Z,5.10
2018-07-23T12:42:38.846Z,4.70
2018-07-23T12:43:38.852Z,4.90
2018-07-23T12:44:38.840Z,5.20
2018-07-23T12:45:38.837Z,5.30
2018-07-23T12:46:38.836Z,4.60
2018-07-23T12:47:41.540Z,4.90
2018-07-23T12:48:48.076Z,4.40
2018-07-23T12:49:38.836Z,4.30
2018-07-23T12:50:38.839Z,4.30
2018-07-23T12:51:40.021Z,4.60
2018-07-23T12:52:43.703Z,4.50
2018-07-23T12:53:48.624Z,5.30
2018-07-23T12:54:38.856Z,4.90
2018-07-23T12:55:38.865Z,4.90
2018-07-23T12:56:38.849Z,5.10
2018-07-23T12:57:38.840Z,5.00
2018-07-23T12:58:38.964Z,4.70
2018-07-23T13:00:38.842Z,5.10
2018-07-23T13:01:38.866Z,4.90
2018-07-23T13:02:38.846Z,4.70
2018-07-23T13:03:38.874Z,4.70
2018-07-23T13:04:38.843Z,4.90
2018-07-23T13:05:38.842Z,4.80
2018-07-23T13:06:39.755Z,4.90